Time,TemperatureF,DewpointF,PressureIn,WindDirection,WindDirectionDegrees,WindSpeedMPH,WindSpeedGustMPH,Humidity,HourlyPrecipIn,Conditions,Clouds,dailyrainin,SolarRadiationWatts/m^2,SoftwareType,DateUTC
2013-09-13 00:02:00,77.5,73.0,29.94,South,190,0.0,-999.0,86,0.00,,,0.00,0,Wunderground v.1.15,2013-09-13 05:02:00,
2013-09-13 00:08:00,77.5,73.0,29.94,South,190,0.0,-999.0,86,0.00,,,0.00,0,Wunderground v.1.15,2013-09-13 05:08:00,
2013-09-13 00:14:00,77.4,72.9,29.94,South,190,0.0,-999.0,86,0.00,,,0.00,0,Wunderground v.1.15,2013-09-13 05:14:00,
2013-09-13 00:20:00,77.4,72.9,29.94,South,190,0.0,-999.0,86,0.00,,,0.00,0,Wunderground v.1.15,2013-09-13 05:20:00,
2013-09-13 00:26:00,77.3,73.1,29.93,South,190,0.0,-999.0,87,0.00,,,0.00,0,Wunderground v.1.15,2013-09-13 05:26:00,
2013-09-13 00:32:00,77.2,73.0,29.93,South,190,0.0,-999.0,87,0.00,,,0.00,0,Wunderground v.1.15,2013-09-13 05:32:00,
2013-09-13 00:38:00,77.2,73.0,29.93,South,190,0.0,-999.0,87,0.00,,,0.00,0,Wunderground v.1.15,2013-09-13 05:38:00,
2013-09-13 00:44:00,77.1,72.9,29.93,South,190,0.0,-999.0,87,0.00,,,0.00,0,Wunderground v.1.15,2013-09-13 05:44:00,
2013-09-13 00:50:00,77.1,72.9,29.93,South,190,0.0,-999.0,87,0.00,,,0.00,0,Wunderground v.1.15,2013-09-13 05:50:00,
2013-09-13 00:56:00,77.0,72.8,29.93,South,190,0.0,-999.0,87,0.00,,,0.00,0,Wunderground v.1.15,2013-09-13 05:56:00,
2013-09-13 01:02:00,77.0,72.8,29.93,South,190,0.0,-999.0,87,0.00,,,0.00,0,Wunderground v.1.15,2013-09-13 06:02:00,
2013-09-13 01:08:00,76.9,73.1,29.93,South,190,0.0,-999.0,88,0.00,,,0.00,0,Wunderground v.1.15,2013-09-13 06:08:00,
2013-09-13 01:14:00,76.9,73.1,29.93,South,190,0.0,-999.0,88,0.00,,,0.00,0,Wunderground v.1.15,2013-09-13 06:14:00,
2013-09-13 01:20:00,76.8,73.0,29.92,South,190,0.0,-999.0,88,0.00,,,0.00,0,Wunderground v.1.15,2013-09-13 06:20:00,
2013-09-13 01:26:00,76.7,72.9,29.92,South,190,0.0,-999.0,88,0.00,,,0.00,0,Wunderground v.1.15,2013-09-13 06:26:00,
2013-09-13 01:32:00,76.7,72.9,29.92,South,190,0.0,-999.0,88,0.00,,,0.00,0,Wunderground v.1.15,2013-09-13 06:32:00,
2013-09-13 01:38:00,76.6,72.8,29.92,South,190,0.0,-999.0,88,0.00,,,0.00,0,Wunderground v.1.15,2013-09-13 06:38:00,
2013-09-13 01:44:00,76.5,72.7,29.92,South,190,0.0,-999.0,88,0.00,,,0.00,0,Wunderground v.1.15,2013-09-13 06:44:00,
2013-09-13 01:50:00,76.5,73.0,29.92,South,190,0.0,-999.0,89,0.00,,,0.00,0,Wunderground v.1.15,2013-09-13 06:50:00,
2013-09-13 01:56:00,76.4,72.9,29.92,South,190,0.0,-999.0,89,0.00,,,0.00,0,Wunderground v.1.15,2013-09-13 06:56:00,
2013-09-13 02:02:00,76.3,72.8,29.92,South,190,0.0,-999.0,89,0.00,,,0.00,0,Wunderground v.1.15,2013-09-13 07:02:00,
2013-09-13 02:08:00,76.2,72.7,29.92,South,190,0.0,-999.0,89,0.00,,,0.00,0,Wunderground v.1.15,2013-09-13 07:08:00,
2013-09-13 02:14:00,76.1,72.6,29.91,South,190,0.0,-999.0,89,0.00,,,0.00,0,Wunderground v.1.15,2013-09-13 07:14:00,
2013-09-13 02:20:00,76.1,72.6,29.91,South,190,0.0,-999.0,89,0.00,,,0.00,0,Wunderground v.1.15,2013-09-13 07:20:00,
2013-09-13 02:26:00,76.1,73.0,29.91,South,190,0.0,-999.0,90,0.00,,,0.00,0,Wunderground v.1.15,2013-09-13 07:26:00,
2013-09-13 02:32:00,76.2,73.1,29.91,South,190,0.0,-999.0,90,0.00,,,0.00,0,Wunderground v.1.15,2013-09-13 07:32:00,
2013-09-13 02:38:00,76.1,73.0,29.91,South,190,0.0,-999.0,90,0.00,,,0.00,0,Wunderground v.1.15,2013-09-13 07:38:00,
2013-09-13 02:44:00,76.1,73.3,29.90,South,190,0.0,-999.0,91,0.00,,,0.00,0,Wunderground v.1.15,2013-09-13 07:44:00,
2013-09-13 02:50:00,76.1,73.3,29.90,South,190,0.0,-999.0,91,0.00,,,0.00,0,Wunderground v.1.15,2013-09-13 07:50:00,
2013-09-13 02:56:00,76.1,73.3,29.90,South,190,0.0,-999.0,91,0.00,,,0.00,0,Wunderground v.1.15,2013-09-13 07:56:00,
2013-09-13 03:02:00,76.2,73.4,29.90,South,190,0.0,-999.0,91,0.00,,,0.00,0,Wunderground v.1.15,2013-09-13 08:02:00,
2013-09-13 03:08:00,76.2,73.4,29.90,South,190,0.0,-999.0,91,0.00,,,0.00,0,Wunderground v.1.15,2013-09-13 08:08:00,
2013-09-13 03:14:00,76.2,73.4,29.90,South,190,0.0,-999.0,91,0.00,,,0.00,0,Wunderground v.1.15,2013-09-13 08:14:00,
2013-09-13 03:20:00,76.2,73.4,29.90,South,190,0.0,-999.0,91,0.00,,,0.00,0,Wunderground v.1.15,2013-09-13 08:20:00,
2013-09-13 03:26:00,76.3,73.5,29.90,South,190,0.0,-999.0,91,0.00,,,0.00,0,Wunderground v.1.15,2013-09-13 08:26:00,
2013-09-13 03:32:00,76.4,73.6,29.90,South,190,0.0,-999.0,91,0.00,,,0.00,0,Wunderground v.1.15,2013-09-13 08:32:00,
2013-09-13 03:38:00,76.6,73.8,29.90,South,190,0.0,-999.0,91,0.00,,,0.00,0,Wunderground v.1.15,2013-09-13 08:38:00,
2013-09-13 03:44:00,76.8,73.6,29.90,SE,140,0.0,-999.0,90,0.00,,,0.00,0,Wunderground v.1.15,2013-09-13 08:44:00,
2013-09-13 03:50:00,77.1,73.9,29.89,SE,140,0.0,-999.0,90,0.00,,,0.00,0,Wunderground v.1.15,2013-09-13 08:50:00,
2013-09-13 03:56:00,77.5,74.0,29.89,South,179,0.0,-999.0,89,0.00,,,0.00,0,Wunderground v.1.15,2013-09-13 08:56:00,
2013-09-13 04:02:00,77.6,74.1,29.89,South,179,0.0,-999.0,89,0.00,,,0.00,0,Wunderground v.1.15,2013-09-13 09:02:00,
2013-09-13 04:08:00,77.8,74.0,29.89,South,179,0.0,-999.0,88,0.00,,,0.00,0,Wunderground v.1.15,2013-09-13 09:08:00,
2013-09-13 04:14:00,78.0,74.2,29.89,South,179,0.0,-999.0,88,0.00,,,0.00,0,Wunderground v.1.15,2013-09-13 09:14:00,
2013-09-13 04:20:00,78.1,73.9,29.89,South,179,0.0,-999.0,87,0.00,,,0.00,0,Wunderground v.1.15,2013-09-13 09:20:00,
2013-09-13 04:26:00,78.3,74.1,29.89,South,179,0.0,-999.0,87,0.00,,,0.00,0,Wunderground v.1.15,2013-09-13 09:26:00,
2013-09-13 04:32:00,78.4,73.9,29.89,South,179,0.0,-999.0,86,0.00,,,0.00,0,Wunderground v.1.15,2013-09-13 09:32:00,
2013-09-13 04:38:00,78.5,74.0,29.89,ESE,104,0.0,-999.0,86,0.00,,,0.00,0,Wunderground v.1.15,2013-09-13 09:38:00,
2013-09-13 04:44:00,78.6,74.1,29.89,ESE,104,0.0,-999.0,86,0.00,,,0.00,0,Wunderground v.1.15,2013-09-13 09:44:00,
2013-09-13 04:52:00,78.7,74.2,29.89,SE,128,0.0,-999.0,86,0.00,,,0.00,0,Wunderground v.1.15,2013-09-13 09:52:00,
2013-09-13 04:58:00,78.8,74.3,29.89,South,186,0.0,-999.0,86,0.00,,,0.00,0,Wunderground v.1.15,2013-09-13 09:58:00,
2013-09-13 05:04:00,78.9,74.0,29.89,South,186,0.0,-999.0,85,0.00,,,0.00,0,Wunderground v.1.15,2013-09-13 10:04:00,
2013-09-13 05:10:00,78.9,74.0,29.89,South,186,0.0,-999.0,85,0.00,,,0.00,0,Wunderground v.1.15,2013-09-13 10:10:00,
2013-09-13 05:16:00,78.9,74.0,29.89,South,186,0.0,-999.0,85,0.00,,,0.00,0,Wunderground v.1.15,2013-09-13 10:16:00,
2013-09-13 05:22:00,78.9,74.0,29.89,SSW,197,0.0,-999.0,85,0.00,,,0.00,0,Wunderground v.1.15,2013-09-13 10:22:00,
2013-09-13 05:28:00,78.8,73.9,29.89,SSW,194,0.0,-999.0,85,0.00,,,0.00,0,Wunderground v.1.15,2013-09-13 10:28:00,
2013-09-13 05:34:00,78.7,73.8,29.89,SSW,194,0.0,-999.0,85,0.00,,,0.00,0,Wunderground v.1.15,2013-09-13 10:34:00,
2013-09-13 05:40:00,78.6,73.7,29.90,SSW,194,0.0,-999.0,85,0.00,,,0.00,0,Wunderground v.1.15,2013-09-13 10:40:00,
2013-09-13 05:46:00,78.6,73.7,29.90,SSW,194,0.0,-999.0,85,0.00,,,0.00,0,Wunderground v.1.15,2013-09-13 10:46:00,
2013-09-13 05:52:00,78.6,73.7,29.90,SSW,194,0.0,-999.0,85,0.00,,,0.00,0,Wunderground v.1.15,2013-09-13 10:52:00,
2013-09-13 05:58:00,78.6,73.7,29.90,SSW,194,0.0,-999.0,85,0.00,,,0.00,0,Wunderground v.1.15,2013-09-13 10:58:00,
2013-09-13 06:04:00,78.6,74.1,29.90,SSW,194,0.0,-999.0,86,0.00,,,0.00,0,Wunderground v.1.15,2013-09-13 11:04:00,
2013-09-13 06:10:00,78.7,74.5,29.90,WNW,296,0.0,-999.0,87,0.00,,,0.00,0,Wunderground v.1.15,2013-09-13 11:10:00,
2013-09-13 06:16:00,78.7,74.5,29.90,North,355,0.0,-999.0,87,0.00,,,0.00,0,Wunderground v.1.15,2013-09-13 11:16:00,
2013-09-13 06:22:00,78.7,74.5,29.90,NE,38,0.0,-999.0,87,0.00,,,0.00,0,Wunderground v.1.15,2013-09-13 11:22:00,
2013-09-13 17:12:00,88.7,75.9,29.82,SW,229,1.0,-999.0,66,0.00,,,0.00,93,Wunderground v.1.15,2013-09-13 22:12:00,
2013-09-13 17:18:00,88.4,75.6,29.82,South,183,1.0,-999.0,66,0.00,,,0.00,65,Wunderground v.1.15,2013-09-13 22:18:00,
2013-09-13 17:24:00,88.2,75.4,29.82,ENE,59,1.0,-999.0,66,0.00,,,0.00,62,Wunderground v.1.15,2013-09-13 22:24:00,
2013-09-13 17:30:00,87.9,75.6,29.82,SW,215,1.0,-999.0,67,0.00,,,0.00,58,Wunderground v.1.15,2013-09-13 22:30:00,
2013-09-13 17:36:00,87.6,74.8,29.82,SSW,212,1.0,-999.0,66,0.00,,,0.00,54,Wunderground v.1.15,2013-09-13 22:36:00,
2013-09-13 17:42:00,87.4,75.1,29.82,SSW,196,1.0,-999.0,67,0.00,,,0.00,51,Wunderground v.1.15,2013-09-13 22:42:00,
2013-09-13 17:48:00,87.1,74.8,29.82,SW,234,1.0,-999.0,67,0.00,,,0.00,47,Wunderground v.1.15,2013-09-13 22:48:00,
2013-09-13 17:54:00,86.9,75.1,29.82,SE,137,1.0,-999.0,68,0.00,,,0.00,44,Wunderground v.1.15,2013-09-13 22:54:00,
2013-09-13 18:00:00,86.7,74.9,29.82,South,174,1.0,-999.0,68,0.00,,,0.00,39,Wunderground v.1.15,2013-09-13 23:00:00,
2013-09-13 18:06:00,86.6,75.2,29.82,SSW,196,1.0,-999.0,69,0.00,,,0.00,33,Wunderground v.1.15,2013-09-13 23:06:00,
2013-09-13 18:12:00,86.5,75.1,29.82,SSW,194,1.0,-999.0,69,0.00,,,0.00,26,Wunderground v.1.15,2013-09-13 23:12:00,
2013-09-13 18:18:00,86.3,75.4,29.82,SSW,194,1.0,-999.0,70,0.00,,,0.00,21,Wunderground v.1.15,2013-09-13 23:18:00,
2013-09-13 18:24:00,86.1,75.2,29.82,SSW,194,0.0,-999.0,70,0.00,,,0.00,12,Wunderground v.1.15,2013-09-13 23:24:00,
2013-09-13 18:30:00,85.9,75.0,29.83,SSE,168,0.0,-999.0,70,0.00,,,0.00,9,Wunderground v.1.15,2013-09-13 23:30:00,
2013-09-13 18:36:00,85.7,74.8,29.83,SSW,203,0.0,-999.0,70,0.00,,,0.00,7,Wunderground v.1.15,2013-09-13 23:36:00,
2013-09-13 18:42:00,85.5,75.0,29.83,SSE,167,0.0,-999.0,71,0.00,,,0.00,5,Wunderground v.1.15,2013-09-13 23:42:00,
2013-09-13 18:48:00,85.3,74.8,29.83,SSE,167,0.0,-999.0,71,0.00,,,0.00,0,Wunderground v.1.15,2013-09-13 23:48:00,
2013-09-13 18:54:00,85.1,74.6,29.83,SSW,211,0.0,-999.0,71,0.00,,,0.00,0,Wunderground v.1.15,2013-09-13 23:54:00,
2013-09-13 19:00:00,84.8,74.3,29.83,SSW,196,0.0,-999.0,71,0.00,,,0.00,0,Wunderground v.1.15,2013-09-14 00:00:00,
2013-09-13 19:06:00,84.7,74.3,29.83,South,187,0.0,-999.0,71,0.00,,,0.00,0,Wunderground v.1.15,2013-09-14 00:06:00,
2013-09-13 19:12:00,84.6,74.6,29.83,SW,220,0.0,-999.0,72,0.00,,,0.00,0,Wunderground v.1.15,2013-09-14 00:12:00,
2013-09-13 19:18:00,84.4,74.4,29.83,SW,231,0.0,-999.0,72,0.00,,,0.00,0,Wunderground v.1.15,2013-09-14 00:18:00,
2013-09-13 19:24:00,84.3,74.3,29.83,SW,230,0.0,-999.0,72,0.00,,,0.00,0,Wunderground v.1.15,2013-09-14 00:24:00,
2013-09-13 19:30:00,84.2,74.2,29.83,SW,229,0.0,-999.0,72,0.00,,,0.00,0,Wunderground v.1.15,2013-09-14 00:30:00,
2013-09-13 19:36:00,84.0,74.4,29.83,SW,227,0.0,-999.0,73,0.00,,,0.00,0,Wunderground v.1.15,2013-09-14 00:36:00,
2013-09-13 19:42:00,83.9,74.3,29.83,SSW,198,0.0,-999.0,73,0.00,,,0.00,0,Wunderground v.1.15,2013-09-14 00:42:00,
2013-09-13 19:48:00,83.8,74.6,29.83,SSW,198,0.0,-999.0,74,0.00,,,0.00,0,Wunderground v.1.15,2013-09-14 00:48:00,
2013-09-13 19:54:00,83.7,74.5,29.84,SSW,198,0.0,-999.0,74,0.00,,,0.00,0,Wunderground v.1.15,2013-09-14 00:54:00,
2013-09-13 20:00:00,83.7,74.5,29.84,South,184,0.0,-999.0,74,0.00,,,0.00,0,Wunderground v.1.15,2013-09-14 01:00:00,
2013-09-13 20:06:00,83.6,74.8,29.84,South,173,0.0,-999.0,75,0.00,,,0.00,0,Wunderground v.1.15,2013-09-14 01:06:00,
2013-09-13 20:12:00,83.5,74.7,29.85,SSW,198,0.0,-999.0,75,0.00,,,0.00,0,Wunderground v.1.15,2013-09-14 01:12:00,
2013-09-13 20:18:00,83.5,75.1,29.85,SSW,198,0.0,-999.0,76,0.00,,,0.00,0,Wunderground v.1.15,2013-09-14 01:18:00,
2013-09-13 20:24:00,83.5,75.1,29.85,SSW,197,0.0,-999.0,76,0.00,,,0.00,0,Wunderground v.1.15,2013-09-14 01:24:00,
2013-09-13 20:30:00,83.5,75.1,29.85,SW,221,0.0,-999.0,76,0.00,,,0.00,0,Wunderground v.1.15,2013-09-14 01:30:00,
2013-09-13 20:36:00,83.5,75.1,29.85,East,98,0.0,-999.0,76,0.00,,,0.00,0,Wunderground v.1.15,2013-09-14 01:36:00,
2013-09-13 20:42:00,83.5,75.1,29.86,SW,226,0.0,-999.0,76,0.00,,,0.00,0,Wunderground v.1.15,2013-09-14 01:42:00,
2013-09-13 20:48:00,83.5,74.7,29.86,SSE,159,0.0,-999.0,75,0.00,,,0.00,0,Wunderground v.1.15,2013-09-14 01:48:00,
2013-09-13 20:54:00,83.5,74.7,29.86,SSW,208,0.0,-999.0,75,0.00,,,0.00,0,Wunderground v.1.15,2013-09-14 01:54:00,
2013-09-13 21:00:00,83.6,74.8,29.86,South,173,0.0,-999.0,75,0.00,,,0.00,0,Wunderground v.1.15,2013-09-14 02:00:00,
2013-09-13 21:06:00,83.6,75.2,29.86,South,173,0.0,-999.0,76,0.00,,,0.00,0,Wunderground v.1.15,2013-09-14 02:06:00,
2013-09-13 21:12:00,83.6,75.2,29.86,South,173,0.0,-999.0,76,0.00,,,0.00,0,Wunderground v.1.15,2013-09-14 02:12:00,
2013-09-13 21:18:00,83.6,75.6,29.86,South,173,0.0,-999.0,77,0.00,,,0.00,0,Wunderground v.1.15,2013-09-14 02:18:00,
2013-09-13 21:24:00,83.5,75.5,29.86,SSE,162,0.0,-999.0,77,0.00,,,0.00,0,Wunderground v.1.15,2013-09-14 02:24:00,
2013-09-13 21:30:00,83.5,75.5,29.87,SSE,162,0.0,-999.0,77,0.00,,,0.00,0,Wunderground v.1.15,2013-09-14 02:30:00,
2013-09-13 21:36:00,83.5,75.5,29.87,East,93,0.0,-999.0,77,0.00,,,0.00,0,Wunderground v.1.15,2013-09-14 02:36:00,
2013-09-13 21:42:00,83.5,75.5,29.86,East,93,0.0,-999.0,77,0.00,,,0.00,0,Wunderground v.1.15,2013-09-14 02:42:00,
2013-09-13 21:48:00,83.5,75.1,29.86,East,92,0.0,-999.0,76,0.00,,,0.00,0,Wunderground v.1.15,2013-09-14 02:48:00,
2013-09-13 21:54:00,83.5,75.5,29.86,East,92,0.0,-999.0,77,0.00,,,0.00,0,Wunderground v.1.15,2013-09-14 02:54:00,
2013-09-13 22:00:00,83.5,75.5,29.86,East,92,0.0,-999.0,77,0.00,,,0.00,0,Wunderground v.1.15,2013-09-14 03:00:00,
2013-09-13 22:06:00,83.5,75.9,29.86,East,92,0.0,-999.0,78,0.00,,,0.00,0,Wunderground v.1.15,2013-09-14 03:06:00,
2013-09-13 22:12:00,83.5,75.9,29.86,East,92,0.0,-999.0,78,0.00,,,0.00,0,Wunderground v.1.15,2013-09-14 03:12:00,
2013-09-13 22:18:00,83.5,75.9,29.86,SSE,157,0.0,-999.0,78,0.00,,,0.00,0,Wunderground v.1.15,2013-09-14 03:18:00,
2013-09-13 22:24:00,83.4,75.8,29.86,SSE,155,0.0,-999.0,78,0.00,,,0.00,0,Wunderground v.1.15,2013-09-14 03:24:00,
2013-09-13 22:30:00,83.4,75.8,29.86,SSE,155,0.0,-999.0,78,0.00,,,0.00,0,Wunderground v.1.15,2013-09-14 03:30:00,
2013-09-13 22:36:00,83.3,75.3,29.87,SE,145,0.0,-999.0,77,0.00,,,0.00,0,Wunderground v.1.15,2013-09-14 03:36:00,
2013-09-13 22:42:00,83.3,75.7,29.87,SE,145,0.0,-999.0,78,0.00,,,0.00,0,Wunderground v.1.15,2013-09-14 03:42:00,
2013-09-13 22:48:00,83.2,75.2,29.87,SE,144,0.0,-999.0,77,0.00,,,0.00,0,Wunderground v.1.15,2013-09-14 03:48:00,
2013-09-13 22:54:00,83.2,75.2,29.87,SE,144,0.0,-999.0,77,0.00,,,0.00,0,Wunderground v.1.15,2013-09-14 03:54:00,
2013-09-13 23:00:00,83.2,75.2,29.87,SE,144,0.0,-999.0,77,0.00,,,0.00,0,Wunderground v.1.15,2013-09-14 04:00:00,
2013-09-13 23:02:00,83.2,75.2,29.86,SE,141,0.0,-999.0,77,0.00,,,0.00,0,Wunderground v.1.15,2013-09-14 04:02:00,
2013-09-13 23:04:00,83.2,74.8,29.87,SE,146,0.0,-999.0,76,0.00,,,0.00,0,Wunderground v.1.15,2013-09-14 04:04:00,
2013-09-13 23:06:00,83.2,75.2,29.86,SE,146,0.0,-999.0,77,0.00,,,0.00,0,Wunderground v.1.15,2013-09-14 04:06:00,
2013-09-13 23:12:00,83.2,75.2,29.86,SE,143,0.0,-999.0,77,0.00,,,0.00,0,Wunderground v.1.15,2013-09-14 04:12:00,
2013-09-13 23:14:00,83.2,75.6,29.86,SE,143,0.0,-999.0,78,0.00,,,0.00,0,Wunderground v.1.15,2013-09-14 04:14:00,
2013-09-13 23:16:00,83.3,75.7,29.86,SSE,148,0.0,-999.0,78,0.00,,,0.00,0,Wunderground v.1.15,2013-09-14 04:16:00,
2013-09-13 23:22:00,83.3,75.7,29.86,SSE,148,0.0,-999.0,78,0.00,,,0.00,0,Wunderground v.1.15,2013-09-14 04:22:00,
2013-09-13 23:28:00,83.2,75.2,29.86,SSW,200,0.0,-999.0,77,0.00,,,0.00,0,Wunderground v.1.15,2013-09-14 04:28:00,
2013-09-13 23:34:00,83.1,75.5,29.86,SSW,200,0.0,-999.0,78,0.00,,,0.00,0,Wunderground v.1.15,2013-09-14 04:34:00,
2013-09-13 23:38:00,83.0,75.4,29.86,SSW,200,0.0,-999.0,78,0.00,,,0.00,0,Wunderground v.1.15,2013-09-14 04:38:00,
2013-09-13 23:44:00,83.0,75.4,29.86,SSW,200,0.0,-999.0,78,0.00,,,0.00,0,Wunderground v.1.15,2013-09-14 04:44:00,
2013-09-13 23:50:00,82.8,75.2,29.86,SSW,200,0.0,-999.0,78,0.00,,,0.00,0,Wunderground v.1.15,2013-09-14 04:50:00,
2013-09-13 23:56:00,82.8,75.2,29.86,SSW,200,0.0,-999.0,78,0.00,,,0.00,0,Wunderground v.1.15,2013-09-14 04:56:00,